Time;durP1;ratioP1;P1;durP2;ratioP2;P2;SDS_P1;SDS_P2;PMS_P1;PMS_P2;Temp;Humidity;BMP_temperature;BMP_pressure;BME280_temperature;BME280_humidity;BME280_pressure;Samples;Min_cycle;Max_cycle;Signal;HPM_P1;HPM_P2
2023/05/17 00:02:19;;;;;;;;;;;;;;;9.72;39.30;100997.03;4926355;28;98143;-65
2023/05/17 00:04:45;;;;;;;;;;;;;;;9.65;39.44;101005.28;4924423;28;97964;-65
2023/05/17 00:07:11;;;;;;;;;;;;;;;9.59;39.71;101000.91;4942822;28;99687;-66
2023/05/17 00:09:37;;;;;;;;;;;;;;;9.54;39.18;100998.13;4929372;28;98402;-69
2023/05/17 00:12:04;;;;;;;;;;;;;;;9.49;39.93;101000.75;4920861;28;98267;-65
2023/05/17 00:14:30;;;;;;;;;;;;;;;9.45;39.45;101003.13;4933402;28;98099;-65
2023/05/17 00:16:57;;;;;;;;;;;;;;;9.40;39.48;101010.31;4959777;27;97963;-69
2023/05/17 00:19:24;;;;;;;;;;;;;;;9.34;39.92;101010.22;4944600;27;98388;-65
2023/05/17 00:21:50;;;;;;;;;;;;;;;9.27;39.87;101006.06;4944576;28;98196;-70
2023/05/17 00:24:17;;;;;;;;;;;;;;;9.21;39.30;101007.88;4944735;28;99346;-65
2023/05/17 00:26:43;;;;;;;;;;;;;;;9.16;39.78;101007.78;4945654;27;99045;-70
2023/05/17 00:29:10;;;;;;;;;;;;;;;9.11;39.19;101018.44;4944014;27;98217;-65
2023/05/17 00:31:36;;;;;;;;;;;;;;;9.05;39.24;101011.38;4940009;28;98361;-65
2023/05/17 00:34:02;;;;;;;;;;;;;;;9.02;39.68;101014.53;4940476;27;98107;-65
2023/05/17 00:36:28;;;;;;;;;;;;;;;8.98;39.86;101008.03;4947837;28;111972;-65
2023/05/17 00:38:55;;;;;;;;;;;;;;;8.96;39.05;101004.75;4966277;27;99897;-70
2023/05/17 00:41:21;;;;;;;;;;;;;;;8.96;39.41;101012.81;4948632;27;97984;-69
2023/05/17 00:43:47;;;;;;;;;;;;;;;8.93;39.58;101010.63;4962883;27;99180;-65
2023/05/17 00:46:14;;;;;;;;;;;;;;;8.89;39.46;101014.88;4948380;27;98866;-65
2023/05/17 00:48:41;;;;;;;;;;;;;;;8.84;39.63;101013.72;4949251;27;98561;-70
2023/05/17 00:51:07;;;;;;;;;;;;;;;8.81;39.40;101024.16;4963930;27;98451;-70
2023/05/17 00:53:35;;;;;;;;;;;;;;;8.78;39.63;101020.06;4948002;27;98038;-65
2023/05/17 00:56:02;;;;;;;;;;;;;;;8.77;39.26;101014.94;4933212;28;98019;-70
2023/05/17 00:58:29;;;;;;;;;;;;;;;8.77;39.64;101018.44;4947713;27;98125;-69
2023/05/17 01:00:55;;;;;;;;;;;;;;;8.77;39.34;101025.69;4948966;27;98063;-69
2023/05/17 01:03:21;;;;;;;;;;;;;;;8.74;39.23;101018.91;4977998;27;98303;-65
2023/05/17 01:05:48;;;;;;;;;;;;;;;8.74;39.43;101029.66;4946652;27;98045;-69
2023/05/17 01:08:15;;;;;;;;;;;;;;;8.75;39.00;101022.41;4966177;27;98488;-70
2023/05/17 01:11:00;;;;;;;;;;;;;;;8.72;39.37;101020.19;4945266;28;99206;-69
2023/05/17 01:13:37;;;;;;;;;;;;;;;8.70;39.23;101016.94;4960726;27;99505;-65
2023/05/17 01:16:17;;;;;;;;;;;;;;;8.68;39.34;101005.59;4960757;27;98060;-70
2023/05/17 01:19:07;;;;;;;;;;;;;;;8.64;39.26;101007.97;4943327;27;98571;-65
2023/05/17 01:21:56;;;;;;;;;;;;;;;8.63;39.01;101017.09;4967570;27;98063;-65
2023/05/17 01:24:31;;;;;;;;;;;;;;;8.59;39.61;101018.63;4977918;27;98211;-69
2023/05/17 01:26:58;;;;;;;;;;;;;;;8.54;39.25;101022.03;4980717;27;99892;-69
2023/05/17 01:29:25;;;;;;;;;;;;;;;8.50;39.36;101025.44;4963307;27;98125;-69
2023/05/17 01:31:52;;;;;;;;;;;;;;;8.45;39.44;101020.81;4946461;27;98062;-65
2023/05/17 01:34:28;;;;;;;;;;;;;;;8.44;39.59;101021.03;4944192;27;98462;-65
2023/05/17 01:36:56;;;;;;;;;;;;;;;8.41;39.79;101016.97;4947468;27;98043;-69
2023/05/17 01:39:22;;;;;;;;;;;;;;;8.41;39.57;101024.19;4961662;27;98022;-66
2023/05/17 01:42:18;;;;;;;;;;;;;;;8.36;39.21;101030.25;4947725;27;98198;-65
2023/05/17 01:45:04;;;;;;;;;;;;;;;8.32;39.64;101039.84;4941118;27;98136;-70
2023/05/17 01:47:42;;;;;;;;;;;;;;;8.29;39.65;101034.94;4960316;28;98098;-65
2023/05/17 01:50:09;;;;;;;;;;;;;;;8.29;39.42;101034.94;4962903;27;98320;-69
2023/05/17 01:52:42;;;;;;;;;;;;;;;8.31;39.57;101035.53;4947531;27;98034;-65
2023/05/17 01:55:23;;;;;;;;;;;;;;;8.32;39.41;101034.47;4944735;28;103825;-69
2023/05/17 01:57:51;;;;;;;;;;;;;;;8.31;39.22;101036.34;4951489;27;98834;-65
2023/05/17 02:00:18;;;;;;;;;;;;;;;8.30;39.41;101039.28;4947077;27;98164;-70
2023/05/17 02:02:44;;;;;;;;;;;;;;;8.28;39.67;101039.50;4958788;27;99489;-69
2023/05/17 02:05:11;;;;;;;;;;;;;;;8.28;39.25;101036.81;4941971;27;98206;-69
2023/05/17 02:07:38;;;;;;;;;;;;;;;8.26;39.49;101038.13;4944174;27;98037;-69
2023/05/17 02:10:05;;;;;;;;;;;;;;;8.23;39.01;101050.13;4959438;27;98062;-65
2023/05/17 02:12:31;;;;;;;;;;;;;;;8.22;39.47;101043.16;4942596;27;98688;-70
2023/05/17 02:14:57;;;;;;;;;;;;;;;8.21;39.67;101048.72;4948413;27;98076;-69
2023/05/17 02:17:25;;;;;;;;;;;;;;;8.20;39.65;101047.09;4954598;28;98028;-67
2023/05/17 02:19:51;;;;;;;;;;;;;;;8.18;39.65;101039.31;4944248;27;98384;-65
2023/05/17 02:22:18;;;;;;;;;;;;;;;8.17;39.54;101044.91;4962099;27;98279;-65
2023/05/17 02:24:45;;;;;;;;;;;;;;;8.15;39.74;101047.00;4958770;27;98114;-69
2023/05/17 02:27:11;;;;;;;;;;;;;;;8.10;39.23;101039.69;4948945;27;97894;-65
2023/05/17 02:29:38;;;;;;;;;;;;;;;8.04;39.66;101048.66;4962894;27;98088;-65
2023/05/17 02:32:05;;;;;;;;;;;;;;;7.99;39.39;101044.00;4963510;27;99611;-65
2023/05/17 02:34:31;;;;;;;;;;;;;;;7.96;39.55;101047.16;4943731;27;98184;-65
2023/05/17 02:36:57;;;;;;;;;;;;;;;7.91;39.62;101041.69;4946547;27;98395;-69
2023/05/17 02:39:23;;;;;;;;;;;;;;;7.87;39.44;101046.72;4959671;27;100883;-66
2023/05/17 02:41:50;;;;;;;;;;;;;;;7.83;39.44;101047.41;4958037;27;98138;-70
2023/05/17 02:44:16;;;;;;;;;;;;;;;7.81;39.59;101054.88;4961910;27;98040;-69
2023/05/17 02:46:46;;;;;;;;;;;;;;;7.76;39.46;101054.75;4927861;27;98273;-65
2023/05/17 02:49:12;;;;;;;;;;;;;;;7.74;39.69;101052.31;4943645;27;98239;-66
2023/05/17 02:51:39;;;;;;;;;;;;;;;7.72;39.28;101057.09;4946710;28;99855;-70
2023/05/17 02:54:05;;;;;;;;;;;;;;;7.71;39.73;101066.22;4943563;27;98048;-70
2023/05/17 02:56:32;;;;;;;;;;;;;;;7.69;39.58;101070.97;4941558;27;98225;-70
2023/05/17 02:59:00;;;;;;;;;;;;;;;7.67;39.70;101078.47;4948259;27;98371;-65
2023/05/17 03:01:26;;;;;;;;;;;;;;;7.65;39.50;101085.09;4924452;27;98099;-70
2023/05/17 03:03:52;;;;;;;;;;;;;;;7.61;39.34;101085.56;4928337;27;98144;-65
2023/05/17 03:06:19;;;;;;;;;;;;;;;7.59;39.47;101098.41;4947454;27;99294;-65
2023/05/17 03:08:46;;;;;;;;;;;;;;;7.58;39.40;101093.25;4963383;27;98474;-69
2023/05/17 03:11:12;;;;;;;;;;;;;;;7.56;39.47;101098.03;4957747;27;99567;-65
2023/05/17 03:13:38;;;;;;;;;;;;;;;7.53;39.46;101096.63;4940943;27;99011;-65
2023/05/17 03:16:06;;;;;;;;;;;;;;;7.53;39.74;101101.19;4931622;27;98971;-70
2023/05/17 03:18:32;;;;;;;;;;;;;;;7.50;39.69;101115.88;4942704;27;98007;-70
2023/05/17 03:20:59;;;;;;;;;;;;;;;7.46;39.56;101109.34;4944673;28;99141;-69
2023/05/17 03:23:25;;;;;;;;;;;;;;;7.46;39.47;101112.00;4931673;27;98152;-65
2023/05/17 03:25:51;;;;;;;;;;;;;;;7.48;39.48;101111.81;4962461;27;98273;-65
2023/05/17 03:28:18;;;;;;;;;;;;;;;7.48;39.51;101117.97;4962834;27;97862;-67
2023/05/17 03:30:44;;;;;;;;;;;;;;;7.50;39.52;101129.28;4946732;27;99479;-65
2023/05/17 03:33:10;;;;;;;;;;;;;;;7.49;39.38;101142.94;4946757;28;98181;-69
2023/05/17 03:35:37;;;;;;;;;;;;;;;7.46;39.40;101138.03;4948811;27;97838;-69
2023/05/17 03:38:03;;;;;;;;;;;;;;;7.41;39.56;101140.59;4959974;27;100076;-65
2023/05/17 03:40:30;;;;;;;;;;;;;;;7.38;39.70;101139.19;4945496;27;98806;-70
2023/05/17 03:42:56;;;;;;;;;;;;;;;7.41;39.29;101144.09;4945369;28;98051;-69
2023/05/17 03:45:22;;;;;;;;;;;;;;;7.42;39.42;101143.03;4946040;27;98019;-70
2023/05/17 03:47:48;;;;;;;;;;;;;;;7.47;39.51;101142.38;4946339;27;98197;-69
2023/05/17 03:50:15;;;;;;;;;;;;;;;7.49;39.39;101143.75;4942278;27;98260;-70
2023/05/17 03:52:41;;;;;;;;;;;;;;;7.52;39.40;101148.66;4962860;27;98287;-69
2023/05/17 03:55:08;;;;;;;;;;;;;;;7.52;39.56;101155.91;4947539;27;98072;-66
2023/05/17 03:57:34;;;;;;;;;;;;;;;7.52;39.29;101150.53;4942467;28;101316;-69
2023/05/17 04:00:01;;;;;;;;;;;;;;;7.49;39.41;101151.81;4946220;27;98701;-64
2023/05/17 04:02:27;;;;;;;;;;;;;;;7.49;39.37;101148.31;4944013;27;98316;-64
2023/05/17 04:04:54;;;;;;;;;;;;;;;7.50;39.33;101148.06;4959659;28;98066;-64
2023/05/17 04:07:20;;;;;;;;;;;;;;;7.51;39.18;101156.97;4929159;28;97965;-66
2023/05/17 04:09:47;;;;;;;;;;;;;;;7.50;39.46;101164.16;4961905;28;98451;-64
2023/05/17 04:12:14;;;;;;;;;;;;;;;7.51;39.36;101163.13;4948005;27;98615;-65
2023/05/17 04:14:41;;;;;;;;;;;;;;;7.50;39.19;101166.84;4932027;28;98597;-65
2023/05/17 04:17:07;;;;;;;;;;;;;;;7.51;39.11;101162.31;4966282;27;98335;-69
2023/05/17 04:19:34;;;;;;;;;;;;;;;7.54;39.41;101167.22;4946507;27;98043;-65
2023/05/17 04:22:00;;;;;;;;;;;;;;;7.56;39.34;101167.81;4963981;27;98417;-69
2023/05/17 04:24:26;;;;;;;;;;;;;;;7.59;39.26;101176.22;4968132;28;98427;-65
2023/05/17 04:26:52;;;;;;;;;;;;;;;7.62;39.36;101173.09;4946795;27;98175;-70
2023/05/17 04:29:18;;;;;;;;;;;;;;;7.66;39.39;101173.41;4948788;27;98867;-69
2023/05/17 04:31:47;;;;;;;;;;;;;;;7.68;39.18;101178.56;4945947;27;100642;-64
2023/05/17 04:34:14;;;;;;;;;;;;;;;7.71;39.39;101176.25;4930012;27;98287;-69
2023/05/17 04:36:41;;;;;;;;;;;;;;;7.74;39.41;101177.63;4943521;27;99556;-70
2023/05/17 04:39:07;;;;;;;;;;;;;;;7.77;39.15;101172.63;4946878;27;98257;-64
2023/05/17 04:41:34;;;;;;;;;;;;;;;7.79;39.27;101173.22;4946376;27;99347;-69
2023/05/17 04:44:00;;;;;;;;;;;;;;;7.80;39.17;101174.03;4928526;27;98064;-65
2023/05/17 04:46:27;;;;;;;;;;;;;;;7.80;39.59;101166.78;4929016;27;98238;-65
2023/05/17 04:48:54;;;;;;;;;;;;;;;7.84;39.43;101169.84;4941831;27;98064;-70
2023/05/17 04:51:21;;;;;;;;;;;;;;;7.88;39.25;101171.00;4942852;27;97937;-65
2023/05/17 04:53:48;;;;;;;;;;;;;;;7.93;39.13;101164.94;4947452;27;98262;-70
2023/05/17 04:56:14;;;;;;;;;;;;;;;7.97;39.15;101169.59;4945393;27;98932;-70
2023/05/17 04:58:41;;;;;;;;;;;;;;;8.06;39.01;101175.47;4961870;27;99612;-65
2023/05/17 05:01:08;;;;;;;;;;;;;;;8.17;39.10;101179.19;4945577;27;98254;-69
2023/05/17 05:03:34;;;;;;;;;;;;;;;8.28;38.96;101179.16;4949443;27;99459;-65
2023/05/17 05:06:00;;;;;;;;;;;;;;;8.47;38.84;101184.44;4963136;27;98456;-70
2023/05/17 05:08:27;;;;;;;;;;;;;;;8.60;38.33;101193.06;4944541;27;98275;-65
2023/05/17 05:10:53;;;;;;;;;;;;;;;8.77;38.81;101195.03;4926570;27;98320;-69
2023/05/17 05:13:20;;;;;;;;;;;;;;;8.89;38.29;101193.13;4943185;28;100117;-69
2023/05/17 05:15:46;;;;;;;;;;;;;;;9.02;38.55;101190.16;4946368;27;99937;-65
2023/05/17 05:18:12;;;;;;;;;;;;;;;9.15;38.30;101190.94;4980059;27;98218;-70
2023/05/17 05:20:38;;;;;;;;;;;;;;;9.30;38.59;101180.44;4944525;27;97853;-65
2023/05/17 05:23:05;;;;;;;;;;;;;;;9.48;37.95;101182.94;4960419;27;98148;-65
2023/05/17 05:25:31;;;;;;;;;;;;;;;9.68;38.08;101170.88;4965173;27;98298;-65
2023/05/17 05:27:58;;;;;;;;;;;;;;;9.73;38.45;101173.66;4966360;28;98166;-70
2023/05/17 05:30:24;;;;;;;;;;;;;;;9.94;38.14;101164.00;4965054;27;98043;-69
2023/05/17 05:32:51;;;;;;;;;;;;;;;10.05;38.40;101171.19;4943887;27;98567;-65
2023/05/17 05:35:17;;;;;;;;;;;;;;;10.15;38.09;101170.53;4948855;27;98453;-70
2023/05/17 05:37:44;;;;;;;;;;;;;;;10.32;38.30;101172.16;4947658;27;99361;-65
2023/05/17 05:40:11;;;;;;;;;;;;;;;10.57;37.98;101179.78;4961309;27;98066;-65
2023/05/17 05:42:37;;;;;;;;;;;;;;;10.69;37.74;101187.75;4948016;28;98455;-69
2023/05/17 05:45:03;;;;;;;;;;;;;;;10.82;38.09;101183.88;4943271;28;98408;-65
2023/05/17 05:47:30;;;;;;;;;;;;;;;10.89;37.92;101189.88;4950084;27;99998;-69
2023/05/17 05:49:56;;;;;;;;;;;;;;;10.98;37.98;101185.66;4962173;27;98103;-70
2023/05/17 05:52:22;;;;;;;;;;;;;;;11.17;38.19;101188.84;4944180;27;98045;-65
2023/05/17 05:54:49;;;;;;;;;;;;;;;11.34;38.25;101194.16;4964677;27;98001;-65
2023/05/17 05:57:16;;;;;;;;;;;;;;;11.56;38.11;101194.09;4943485;27;98788;-70
2023/05/17 05:59:42;;;;;;;;;;;;;;;11.70;37.94;101197.19;4945115;27;98231;-65
2023/05/17 06:02:08;;;;;;;;;;;;;;;12.09;37.91;101207.78;4943332;27;98190;-65
2023/05/17 06:04:35;;;;;;;;;;;;;;;13.29;36.45;101196.22;4945496;28;98548;-70
2023/05/17 06:07:01;;;;;;;;;;;;;;;14.13;35.91;101208.44;4946024;27;97974;-70
2023/05/17 06:09:28;;;;;;;;;;;;;;;14.14;36.59;101197.31;4947171;27;98198;-70
2023/05/17 06:11:54;;;;;;;;;;;;;;;14.92;36.28;101209.59;4944636;27;99493;-70
2023/05/17 06:14:20;;;;;;;;;;;;;;;16.17;34.92;101205.50;4948597;27;98178;-70
2023/05/17 06:16:47;;;;;;;;;;;;;;;16.53;35.10;101207.03;4943370;27;97991;-69
2023/05/17 06:19:14;;;;;;;;;;;;;;;16.81;35.18;101203.44;4958973;28;98968;-70
2023/05/17 06:21:40;;;;;;;;;;;;;;;16.90;35.55;101203.63;4946223;27;97969;-70
2023/05/17 06:24:06;;;;;;;;;;;;;;;17.52;35.20;101212.56;4960998;27;100333;-70
2023/05/17 06:26:33;;;;;;;;;;;;;;;17.76;35.14;101200.78;4932593;27;98237;-65
2023/05/17 06:28:59;;;;;;;;;;;;;;;17.91;35.30;101212.22;4933071;27;98598;-70
2023/05/17 06:31:26;;;;;;;;;;;;;;;18.27;35.24;101199.88;4946669;27;98054;-66
2023/05/17 06:33:53;;;;;;;;;;;;;;;18.35;35.29;101210.09;4946462;27;98365;-66
2023/05/17 06:36:19;;;;;;;;;;;;;;;18.55;35.23;101211.63;4933125;27;98501;-70
2023/05/17 06:38:45;;;;;;;;;;;;;;;18.63;35.43;101211.75;4942285;28;98023;-70
2023/05/17 06:41:12;;;;;;;;;;;;;;;18.79;35.29;101211.47;4941794;27;98102;-69
2023/05/17 06:43:38;;;;;;;;;;;;;;;18.78;35.69;101221.56;4945743;27;98162;-70
2023/05/17 06:46:05;;;;;;;;;;;;;;;18.78;35.72;101212.56;4947093;27;98021;-65
2023/05/17 06:48:31;;;;;;;;;;;;;;;18.87;35.61;101213.50;4941738;27;98216;-71
2023/05/17 06:50:57;;;;;;;;;;;;;;;18.82;35.75;101224.50;4931776;27;98413;-66
2023/05/17 06:53:26;;;;;;;;;;;;;;;18.74;36.15;101225.22;4951249;27;100073;-66
2023/05/17 06:55:52;;;;;;;;;;;;;;;18.78;36.06;101234.41;4928049;27;98275;-69
2023/05/17 06:58:18;;;;;;;;;;;;;;;18.84;36.05;101234.03;4949857;27;97969;-66
2023/05/17 07:00:44;;;;;;;;;;;;;;;18.96;36.00;101232.69;4932072;27;98351;-65
2023/05/17 07:03:10;;;;;;;;;;;;;;;18.94;35.83;101234.91;4945540;27;98073;-65
2023/05/17 07:05:36;;;;;;;;;;;;;;;19.09;36.02;101237.31;4943870;28;97991;-70
2023/05/17 07:08:03;;;;;;;;;;;;;;;19.31;35.74;101236.59;4940469;28;98078;-69
2023/05/17 07:10:29;;;;;;;;;;;;;;;19.38;35.97;101237.78;4942286;27;97839;-65
2023/05/17 07:12:55;;;;;;;;;;;;;;;19.45;35.86;101240.06;4947979;27;128343;-70
2023/05/17 07:15:21;;;;;;;;;;;;;;;19.50;35.79;101237.25;4947747;28;98798;-65
2023/05/17 07:17:47;;;;;;;;;;;;;;;19.56;36.08;101229.72;4977499;27;98447;-65
2023/05/17 07:20:13;;;;;;;;;;;;;;;19.71;35.67;101223.91;4944374;27;98322;-70
2023/05/17 07:22:39;;;;;;;;;;;;;;;19.82;35.77;101228.03;4942650;27;100209;-66
2023/05/17 07:25:07;;;;;;;;;;;;;;;19.96;35.58;101230.69;4945617;27;98175;-70
2023/05/17 07:27:33;;;;;;;;;;;;;;;19.85;35.65;101234.81;4929746;27;97984;-70
2023/05/17 07:30:00;;;;;;;;;;;;;;;20.09;35.47;101231.75;4947888;27;98157;-70
2023/05/17 07:32:26;;;;;;;;;;;;;;;20.45;35.28;101242.56;4941879;27;98497;-70
2023/05/17 07:34:54;;;;;;;;;;;;;;;20.58;35.08;101236.19;4942025;27;98271;-69
2023/05/17 07:37:20;;;;;;;;;;;;;;;20.81;34.92;101239.66;4947408;27;97954;-65
2023/05/17 07:39:47;;;;;;;;;;;;;;;21.02;34.98;101242.59;4963705;27;98429;-69
2023/05/17 07:42:13;;;;;;;;;;;;;;;21.18;34.82;101245.72;4942835;28;98625;-68
2023/05/17 07:44:39;;;;;;;;;;;;;;;21.29;34.80;101243.47;4962604;27;98281;-70
2023/05/17 07:47:06;;;;;;;;;;;;;;;21.65;34.54;101254.16;4945250;27;98119;-65
2023/05/17 07:49:33;;;;;;;;;;;;;;;22.03;34.21;101237.00;4963413;27;98100;-69
2023/05/17 07:52:01;;;;;;;;;;;;;;;22.32;34.09;101244.56;4945335;27;98037;-65
2023/05/17 07:54:27;;;;;;;;;;;;;;;22.85;33.60;101242.41;4940070;27;98090;-65
2023/05/17 07:56:54;;;;;;;;;;;;;;;23.46;33.36;101240.91;4962602;27;97992;-65
2023/05/17 07:59:23;;;;;;;;;;;;;;;23.72;33.33;101251.69;4946110;27;98001;-70
2023/05/17 08:01:50;;;;;;;;;;;;;;;24.21;33.44;101245.56;4957613;27;99823;-70
2023/05/17 08:04:16;;;;;;;;;;;;;;;24.68;33.05;101251.50;4958172;28;98302;-70
2023/05/17 08:06:45;;;;;;;;;;;;;;;25.24;32.62;101250.13;4959293;27;98431;-65
2023/05/17 08:09:11;;;;;;;;;;;;;;;23.64;34.34;101251.75;4942992;27;97988;-66
2023/05/17 08:11:44;;;;;;;;;;;;;;;24.71;33.21;101248.03;4943057;27;97982;-66
2023/05/17 08:14:14;;;;;;;;;;;;;;;25.08;32.99;101263.78;4946415;27;98125;-66
2023/05/17 08:16:43;;;;;;;;;;;;;;;24.55;33.84;101263.66;4942635;27;98309;-66
2023/05/17 08:19:11;;;;;;;;;;;;;;;25.08;33.19;101259.06;4946223;27;98201;-71
2023/05/17 08:21:38;;;;;;;;;;;;;;;26.18;32.36;101261.50;4928318;28;99395;-70
2023/05/17 08:24:05;;;;;;;;;;;;;;;27.07;31.70;101268.44;4944663;27;98016;-66
2023/05/17 08:26:32;;;;;;;;;;;;;;;27.97;31.15;101268.41;4947374;27;98105;-70
2023/05/17 08:28:58;;;;;;;;;;;;;;;28.75;31.12;101273.75;4942286;27;99854;-69
2023/05/17 08:31:24;;;;;;;;;;;;;;;27.79;32.04;101278.34;4964923;27;98023;-70
2023/05/17 08:33:50;;;;;;;;;;;;;;;27.65;32.30;101270.50;4947625;28;97889;-66
2023/05/17 08:36:16;;;;;;;;;;;;;;;27.84;32.16;101273.31;4961677;27;98079;-66
2023/05/17 08:38:43;;;;;;;;;;;;;;;26.42;33.32;101271.59;4952773;27;98240;-65
2023/05/17 08:41:09;;;;;;;;;;;;;;;27.83;32.14;101266.16;4945503;27;98347;-66
2023/05/17 08:43:36;;;;;;;;;;;;;;;28.85;31.41;101265.59;4939973;27;98093;-71
2023/05/17 08:46:03;;;;;;;;;;;;;;;28.11;32.22;101256.81;4961782;27;98091;-66
2023/05/17 08:48:37;;;;;;;;;;;;;;;26.66;33.56;101256.03;4942851;27;98145;-70
2023/05/17 08:51:03;;;;;;;;;;;;;;;25.52;34.58;101270.28;4962200;27;98055;-70
2023/05/17 08:53:29;;;;;;;;;;;;;;;24.71;35.15;101258.28;4945176;27;99965;-66
2023/05/17 08:55:59;;;;;;;;;;;;;;;27.19;32.44;101245.41;4961406;27;98350;-66
2023/05/17 08:58:30;;;;;;;;;;;;;;;25.95;33.85;101246.66;4979174;27;97981;-66
2023/05/17 09:00:57;;;;;;;;;;;;;;;24.54;34.93;101248.28;4948009;27;99929;-66
2023/05/17 09:03:23;;;;;;;;;;;;;;;23.39;35.60;101248.09;4948662;27;97970;-65
2023/05/17 09:05:53;;;;;;;;;;;;;;;22.60;36.26;101252.38;4950145;27;98246;-65
2023/05/17 09:08:22;;;;;;;;;;;;;;;21.94;36.60;101255.44;4947624;28;99776;-65
2023/05/17 09:10:48;;;;;;;;;;;;;;;21.49;36.51;101259.31;4966580;27;99477;-65
2023/05/17 09:13:15;;;;;;;;;;;;;;;23.61;33.94;101244.16;4943883;27;98251;-71
2023/05/17 09:15:48;;;;;;;;;;;;;;;26.45;31.38;101242.47;4951972;27;97836;-70
2023/05/17 09:18:15;;;;;;;;;;;;;;;25.17;32.94;101251.50;4954128;27;98301;-65
2023/05/17 09:20:42;;;;;;;;;;;;;;;24.22;34.42;101247.16;4961359;28;98360;-65
2023/05/17 09:23:11;;;;;;;;;;;;;;;23.05;35.35;101260.09;4943911;27;98452;-65
2023/05/17 09:25:38;;;;;;;;;;;;;;;22.14;36.05;101267.72;4963797;27;98101;-70
2023/05/17 09:28:08;;;;;;;;;;;;;;;21.45;36.47;101272.06;4949036;27;98102;-65
2023/05/17 09:30:36;;;;;;;;;;;;;;;20.99;36.66;101267.94;4936017;27;97862;-65
2023/05/17 09:33:06;;;;;;;;;;;;;;;20.72;36.77;101260.75;4950701;27;98142;-70
2023/05/17 09:35:33;;;;;;;;;;;;;;;20.86;36.19;101271.56;4956346;28;98261;-71
2023/05/17 09:38:13;;;;;;;;;;;;;;;22.84;34.00;101260.03;4964445;28;98067;-70
2023/05/17 09:40:43;;;;;;;;;;;;;;;23.08;33.87;101259.44;4979938;28;98367;-65
2023/05/17 09:43:10;;;;;;;;;;;;;;;21.93;35.05;101262.03;4943771;27;98295;-65
2023/05/17 09:45:36;;;;;;;;;;;;;;;21.22;35.58;101263.16;4958253;27;97911;-70
2023/05/17 09:48:12;;;;;;;;;;;;;;;20.54;36.18;101261.78;4946475;27;98037;-64
2023/05/17 09:50:46;;;;;;;;;;;;;;;19.94;36.52;101275.91;4962444;28;98081;-70
2023/05/17 09:53:41;;;;;;;;;;;;;;;19.71;36.56;101272.34;4962546;27;98103;-64
2023/05/17 09:56:09;;;;;;;;;;;;;;;22.71;33.27;101257.16;4937701;28;98121;-69
2023/05/17 09:58:38;;;;;;;;;;;;;;;25.30;31.00;101268.00;4952590;27;98050;-65
2023/05/17 10:01:06;;;;;;;;;;;;;;;26.85;30.27;101269.13;4965239;27;98253;-70
2023/05/17 10:03:36;;;;;;;;;;;;;;;28.93;29.02;101274.84;4964115;27;99574;-69
2023/05/17 10:06:06;;;;;;;;;;;;;;;30.29;28.70;101280.16;4925048;28;98151;-65
2023/05/17 10:08:33;;;;;;;;;;;;;;;31.28;28.59;101272.97;4927051;27;98237;-69
2023/05/17 10:11:09;;;;;;;;;;;;;;;29.78;30.35;101274.44;4948277;27;98388;-68
2023/05/17 10:13:48;;;;;;;;;;;;;;;27.51;32.88;101267.44;4947339;27;98098;-69
2023/05/17 10:16:14;;;;;;;;;;;;;;;26.12;33.88;101267.63;4964117;28;98284;-66
2023/05/17 10:18:40;;;;;;;;;;;;;;;25.21;34.26;101266.19;4947285;27;98229;-65
2023/05/17 10:21:09;;;;;;;;;;;;;;;24.40;34.85;101270.63;4941509;27;116887;-65
2023/05/17 10:23:37;;;;;;;;;;;;;;;24.63;34.17;101270.22;4933125;27;98643;-68
2023/05/17 10:26:03;;;;;;;;;;;;;;;28.92;30.10;101261.31;4941119;28;98073;-70
2023/05/17 10:28:29;;;;;;;;;;;;;;;26.12;32.96;101278.69;4946223;27;98312;-69
2023/05/17 10:30:55;;;;;;;;;;;;;;;25.85;33.44;101274.78;4961218;27;98518;-70
2023/05/17 10:33:21;;;;;;;;;;;;;;;28.76;30.29;101261.47;4963843;27;98154;-70
2023/05/17 10:35:48;;;;;;;;;;;;;;;30.50;29.40;101276.00;4948540;28;98356;-70
2023/05/17 10:38:14;;;;;;;;;;;;;;;31.86;28.64;101279.63;4946854;27;98195;-65
2023/05/17 10:40:41;;;;;;;;;;;;;;;32.78;28.29;101283.72;4962975;27;98660;-70
2023/05/17 10:43:07;;;;;;;;;;;;;;;30.47;30.83;101282.31;4930965;27;98406;-66
2023/05/17 10:45:33;;;;;;;;;;;;;;;31.77;29.63;101275.19;4931224;27;99294;-66
2023/05/17 10:48:01;;;;;;;;;;;;;;;29.87;31.42;101265.78;4931322;27;100529;-70
2023/05/17 10:50:27;;;;;;;;;;;;;;;29.77;31.30;101270.06;4946278;27;98264;-66
2023/05/17 10:52:56;;;;;;;;;;;;;;;31.89;29.48;101262.91;4933982;27;100469;-70
2023/05/17 10:55:24;;;;;;;;;;;;;;;32.72;29.06;101272.19;4961414;27;98070;-66
2023/05/17 10:58:18;;;;;;;;;;;;;;;33.28;28.74;101264.09;4942378;28;98485;-65
2023/05/17 11:00:53;;;;;;;;;;;;;;;31.63;30.74;101265.97;4949718;27;98002;-70
2023/05/17 11:03:21;;;;;;;;;;;;;;;32.64;29.63;101254.66;4961836;27;99390;-66
2023/05/17 11:06:09;;;;;;;;;;;;;;;31.05;31.34;101249.00;4964141;27;98244;-65
2023/05/17 11:08:35;;;;;;;;;;;;;;;30.88;31.33;101249.66;4978978;27;98091;-70
2023/05/17 11:11:11;;;;;;;;;;;;;;;31.94;30.35;101242.22;4935513;27;99890;-69
2023/05/17 11:13:55;;;;;;;;;;;;;;;32.52;29.64;101245.88;4947325;27;98074;-69
2023/05/17 11:16:24;;;;;;;;;;;;;;;32.37;29.87;101256.22;4944216;27;97950;-69
2023/05/17 11:18:53;;;;;;;;;;;;;;;32.80;29.67;101251.44;4945375;27;98321;-69
2023/05/17 11:21:21;;;;;;;;;;;;;;;32.92;29.66;101245.44;4958502;28;98070;-70
2023/05/17 11:23:47;;;;;;;;;;;;;;;32.83;30.01;101241.47;4976629;27;98161;-66
2023/05/17 11:26:20;;;;;;;;;;;;;;;32.89;29.52;101243.44;4969324;27;98171;-69
2023/05/17 11:28:46;;;;;;;;;;;;;;;31.24;31.30;101245.13;4949644;27;97990;-65
2023/05/17 11:31:13;;;;;;;;;;;;;;;29.58;32.87;101243.25;4962546;28;98034;-66
2023/05/17 11:33:44;;;;;;;;;;;;;;;29.36;32.53;101244.94;4947317;27;97860;-70
2023/05/17 11:36:18;;;;;;;;;;;;;;;30.11;31.31;101239.47;4959036;28;98196;-66
2023/05/17 11:38:47;;;;;;;;;;;;;;;30.16;31.20;101241.91;4963391;27;98407;-70
2023/05/17 11:41:18;;;;;;;;;;;;;;;28.00;33.21;101237.19;4959380;27;98155;-65
2023/05/17 11:43:46;;;;;;;;;;;;;;;27.03;34.07;101242.66;4959870;27;98557;-69
2023/05/17 11:46:18;;;;;;;;;;;;;;;28.88;31.75;101225.22;4963978;27;97979;-70
2023/05/17 11:48:45;;;;;;;;;;;;;;;30.04;30.55;101237.41;4980491;27;97967;-70
2023/05/17 11:51:15;;;;;;;;;;;;;;;30.76;29.92;101241.63;4943205;27;98249;-69
2023/05/17 11:53:42;;;;;;;;;;;;;;;31.05;29.78;101237.06;4941975;28;100153;-65
2023/05/17 11:56:08;;;;;;;;;;;;;;;31.19;29.88;101248.25;4958789;27;98041;-66
2023/05/17 11:58:35;;;;;;;;;;;;;;;31.24;29.88;101244.31;4941877;28;98105;-66
2023/05/17 12:01:03;;;;;;;;;;;;;;;31.34;29.90;101240.81;4941192;27;98122;-69
2023/05/17 12:03:29;;;;;;;;;;;;;;;31.33;30.13;101239.22;4927930;27;98250;-69
2023/05/17 12:06:05;;;;;;;;;;;;;;;31.27;29.79;101224.03;4960613;27;105961;-66
2023/05/17 12:08:35;;;;;;;;;;;;;;;30.72;30.48;101224.88;4977778;27;98297;-69
2023/05/17 12:11:01;;;;;;;;;;;;;;;29.60;31.25;101218.69;4964675;28;98202;-68
2023/05/17 12:13:29;;;;;;;;;;;;;;;30.03;30.57;101224.69;4939865;27;98252;-65
2023/05/17 12:16:04;;;;;;;;;;;;;;;29.80;30.77;101228.44;4947407;28;98210;-69
2023/05/17 12:18:44;;;;;;;;;;;;;;;29.62;31.30;101223.84;4932838;27;98313;-69
2023/05/17 12:21:13;;;;;;;;;;;;;;;29.38;31.47;101216.78;4961704;27;98409;-66
2023/05/17 12:23:42;;;;;;;;;;;;;;;29.18;31.44;101221.69;4928283;27;97998;-69
2023/05/17 12:26:13;;;;;;;;;;;;;;;29.01;31.86;101229.41;4963082;27;98073;-65
2023/05/17 12:28:59;;;;;;;;;;;;;;;28.92;31.66;101228.03;4946261;27;97897;-65
2023/05/17 12:31:30;;;;;;;;;;;;;;;28.72;32.09;101224.56;4947441;27;98099;-65
2023/05/17 12:33:58;;;;;;;;;;;;;;;28.56;31.86;101228.28;4961131;27;97953;-65
2023/05/17 12:36:24;;;;;;;;;;;;;;;28.52;32.04;101227.44;4949973;27;98068;-65
2023/05/17 12:38:51;;;;;;;;;;;;;;;28.53;32.24;101229.06;4948448;27;98182;-68
2023/05/17 12:41:17;;;;;;;;;;;;;;;28.48;32.15;101234.09;4960179;27;98225;-68
2023/05/17 12:43:44;;;;;;;;;;;;;;;28.25;32.50;101229.31;4952505;27;98421;-68
2023/05/17 12:46:12;;;;;;;;;;;;;;;27.99;32.64;101234.81;4947413;27;97927;-69